JST673 YPDN-YBBN
Flight info
| Callsign | JST673 |
|---|---|
| Flight time | 3h 38m |
| Altitude | 37000 |
| Route | DN Y25 OPEKO A464 UNVAT V327 IGUPI Y340 LAMUG Y177 BN |
| Aircraft | A320/M-SDE3FGHIRWY/LB1 |
Departure
| Time | 2026-04-22 09:42 |
|---|---|
| Airport | Darwin International Airport / RAAF Darwin (YPDN) |
Arrival
| Time | 2026-04-22 13:21 |
|---|---|
| Airport | Brisbane International Airport (YBBN) |
| Time | Latitude | Longitude | Altitude | Speed | Heading |
|---|---|---|---|---|---|
| 2026-04-22 08:43 | -12.40882 | 130.87741 | 94 ft | 0 kts | 19° |
| 2026-04-22 09:24 | -12.40887 | 130.87739 | 91 ft | 3 kts | 18° |
| 2026-04-22 09:25 | -12.40908 | 130.87734 | 91 ft | 3 kts | 6° |
| 2026-04-22 09:25 | -12.40930 | 130.87733 | 91 ft | 3 kts | 349° |
| 2026-04-22 09:25 | -12.40950 | 130.87740 | 90 ft | 3 kts | 321° |
| 2026-04-22 09:25 | -12.40963 | 130.87756 | 93 ft | 3 kts | 284° |
| 2026-04-22 09:26 | -12.40964 | 130.87760 | 93 ft | 0 kts | 280° |
| 2026-04-22 09:34 | -12.40963 | 130.87753 | 90 ft | 2 kts | 280° |
| 2026-04-22 09:35 | -12.40961 | 130.87741 | 90 ft | 0 kts | 280° |
| 2026-04-22 09:35 | -12.40960 | 130.87737 | 93 ft | 0 kts | 281° |
| 2026-04-22 09:36 | -12.40959 | 130.87730 | 92 ft | 2 kts | 281° |
| 2026-04-22 09:36 | -12.40954 | 130.87706 | 92 ft | 5 kts | 278° |
| 2026-04-22 09:37 | -12.40958 | 130.87664 | 92 ft | 7 kts | 256° |
| 2026-04-22 09:37 | -12.40986 | 130.87614 | 90 ft | 9 kts | 225° |
| 2026-04-22 09:37 | -12.41050 | 130.87582 | 90 ft | 11 kts | 199° |
| 2026-04-22 09:37 | -12.41129 | 130.87555 | 92 ft | 13 kts | 199° |
| 2026-04-22 09:38 | -12.41219 | 130.87522 | 90 ft | 14 kts | 199° |
| 2026-04-22 09:38 | -12.41320 | 130.87488 | 91 ft | 16 kts | 198° |
| 2026-04-22 09:38 | -12.41431 | 130.87447 | 91 ft | 18 kts | 206° |
| 2026-04-22 09:38 | -12.41492 | 130.87339 | 90 ft | 19 kts | 274° |
| 2026-04-22 09:39 | -12.41450 | 130.87204 | 92 ft | 21 kts | 290° |
| 2026-04-22 09:39 | -12.41400 | 130.87057 | 92 ft | 23 kts | 289° |
| 2026-04-22 09:39 | -12.41345 | 130.86896 | 91 ft | 25 kts | 289° |
| 2026-04-22 09:39 | -12.41287 | 130.86722 | 90 ft | 27 kts | 288° |
| 2026-04-22 09:40 | -12.41232 | 130.86557 | 91 ft | 17 kts | 290° |
| 2026-04-22 09:40 | -12.41144 | 130.86476 | 90 ft | 19 kts | 347° |
| 2026-04-22 09:40 | -12.41027 | 130.86501 | 90 ft | 16 kts | 19° |
| 2026-04-22 09:40 | -12.40958 | 130.86582 | 90 ft | 17 kts | 95° |
| 2026-04-22 09:41 | -12.40971 | 130.86628 | 91 ft | 0 kts | 109° |
| 2026-04-22 09:41 | -12.40973 | 130.86635 | 91 ft | 2 kts | 109° |
| 2026-04-22 09:41 | -12.41016 | 130.86765 | 93 ft | 51 kts | 109° |
| 2026-04-22 09:42 | -12.41205 | 130.87321 | 91 ft | 111 kts | 109° |
| 2026-04-22 09:42 | -12.41508 | 130.88222 | 95 ft | 155 kts | 111° |
| 2026-04-22 09:42 | -12.41913 | 130.89257 | 673 ft | 155 kts | 109° |
| 2026-04-22 09:42 | -12.42276 | 130.90290 | 1295 ft | 154 kts | 107° |
| 2026-04-22 09:43 | -12.42500 | 130.90979 | 1719 ft | 154 kts | 108° |
| 2026-04-22 09:43 | -12.42846 | 130.92052 | 2134 ft | 168 kts | 107° |
| 2026-04-22 09:43 | -12.43377 | 130.93687 | 2413 ft | 199 kts | 108° |
| 2026-04-22 09:43 | -12.43842 | 130.95108 | 2742 ft | 223 kts | 108° |
| 2026-04-22 09:44 | -12.44364 | 130.96694 | 3162 ft | 244 kts | 109° |
| 2026-04-22 09:44 | -12.44917 | 130.98361 | 3914 ft | 250 kts | 109° |
| 2026-04-22 09:44 | -12.45481 | 131.00056 | 4790 ft | 253 kts | 109° |
| 2026-04-22 09:44 | -12.45856 | 131.01185 | 5369 ft | 255 kts | 109° |
| 2026-04-22 09:45 | -12.46630 | 131.03504 | 6479 ft | 260 kts | 108° |
| 2026-04-22 09:45 | -12.46958 | 131.04684 | 6984 ft | 263 kts | 101° |
| 2026-04-22 09:45 | -12.47352 | 131.07157 | 7981 ft | 268 kts | 98° |
| 2026-04-22 09:45 | -12.47645 | 131.09056 | 8721 ft | 273 kts | 98° |
| 2026-04-22 09:46 | -12.47948 | 131.10996 | 9435 ft | 278 kts | 98° |
| 2026-04-22 09:46 | -12.48152 | 131.12296 | 9897 ft | 282 kts | 98° |
| 2026-04-22 09:46 | -12.48584 | 131.15043 | 10339 ft | 306 kts | 98° |
| 2026-04-22 09:46 | -12.48811 | 131.16485 | 10600 ft | 314 kts | 98° |
| 2026-04-22 09:47 | -12.49281 | 131.19476 | 11357 ft | 322 kts | 99° |
| 2026-04-22 09:47 | -12.49518 | 131.20985 | 11746 ft | 326 kts | 99° |
| 2026-04-22 09:47 | -12.49880 | 131.23292 | 12345 ft | 330 kts | 99° |
| 2026-04-22 09:47 | -12.50247 | 131.25624 | 12931 ft | 335 kts | 99° |
| 2026-04-22 09:48 | -12.50742 | 131.28771 | 13710 ft | 341 kts | 99° |
| 2026-04-22 09:48 | -12.50997 | 131.30399 | 14062 ft | 344 kts | 99° |
| 2026-04-22 09:48 | -12.51371 | 131.32791 | 14610 ft | 346 kts | 99° |
| 2026-04-22 09:48 | -12.51754 | 131.35229 | 15153 ft | 349 kts | 99° |
| 2026-04-22 09:49 | -12.52267 | 131.38519 | 15865 ft | 352 kts | 99° |
| 2026-04-22 09:49 | -12.52524 | 131.40157 | 16212 ft | 354 kts | 99° |
| 2026-04-22 09:49 | -12.52913 | 131.42651 | 16738 ft | 356 kts | 99° |
| 2026-04-22 09:49 | -12.53303 | 131.45164 | 17256 ft | 359 kts | 99° |
| 2026-04-22 09:50 | -12.53698 | 131.47697 | 17773 ft | 362 kts | 99° |
| 2026-04-22 09:50 | -12.54097 | 131.50251 | 18273 ft | 365 kts | 99° |
| 2026-04-22 09:50 | -12.54495 | 131.52792 | 18694 ft | 368 kts | 99° |
| 2026-04-22 09:50 | -12.54903 | 131.55385 | 19119 ft | 371 kts | 99° |
| 2026-04-22 09:51 | -12.55312 | 131.58003 | 19543 ft | 373 kts | 99° |
| 2026-04-22 09:51 | -12.55719 | 131.60638 | 19975 ft | 376 kts | 100° |
| 2026-04-22 09:51 | -12.56127 | 131.63293 | 20381 ft | 380 kts | 100° |
| 2026-04-22 09:51 | -12.56540 | 131.65966 | 20772 ft | 383 kts | 99° |
| 2026-04-22 09:52 | -12.56958 | 131.68673 | 21164 ft | 387 kts | 100° |
| 2026-04-22 09:52 | -12.57381 | 131.71404 | 21558 ft | 390 kts | 100° |
| 2026-04-22 09:52 | -12.57826 | 131.74155 | 21928 ft | 393 kts | 103° |
| 2026-04-22 09:52 | -12.58554 | 131.76862 | 22301 ft | 396 kts | 108° |
| 2026-04-22 09:53 | -12.59321 | 131.79541 | 22686 ft | 399 kts | 108° |
| 2026-04-22 09:53 | -12.60099 | 131.82276 | 23068 ft | 402 kts | 107° |
| 2026-04-22 09:53 | -12.60878 | 131.85035 | 23423 ft | 405 kts | 108° |
| 2026-04-22 09:53 | -12.61661 | 131.87814 | 23758 ft | 408 kts | 108° |
| 2026-04-22 09:54 | -12.62452 | 131.90614 | 24076 ft | 410 kts | 107° |
| 2026-04-22 09:54 | -12.63251 | 131.93428 | 24402 ft | 413 kts | 108° |
| 2026-04-22 09:54 | -12.64052 | 131.96257 | 24727 ft | 415 kts | 107° |
| 2026-04-22 09:54 | -12.64856 | 131.99099 | 25068 ft | 417 kts | 107° |
| 2026-04-22 09:55 | -12.65651 | 132.01920 | 25396 ft | 418 kts | 107° |
| 2026-04-22 09:55 | -12.66458 | 132.04784 | 25718 ft | 421 kts | 108° |
| 2026-04-22 09:55 | -12.67274 | 132.07673 | 26048 ft | 422 kts | 107° |
| 2026-04-22 09:55 | -12.68093 | 132.10568 | 26374 ft | 424 kts | 108° |
| 2026-04-22 09:56 | -12.68915 | 132.13470 | 26689 ft | 426 kts | 107° |
| 2026-04-22 09:56 | -12.69820 | 132.16364 | 26990 ft | 427 kts | 114° |
| 2026-04-22 09:56 | -12.71241 | 132.19028 | 27290 ft | 427 kts | 127° |
| 2026-04-22 09:56 | -12.73204 | 132.21301 | 27581 ft | 427 kts | 140° |
| 2026-04-22 09:57 | -12.75612 | 132.23070 | 27874 ft | 427 kts | 153° |
| 2026-04-22 09:57 | -12.78303 | 132.24234 | 28168 ft | 426 kts | 165° |
| 2026-04-22 09:57 | -12.81205 | 132.24882 | 28424 ft | 429 kts | 170° |
| 2026-04-22 09:57 | -12.84149 | 132.25466 | 28678 ft | 433 kts | 170° |
| 2026-04-22 09:58 | -12.87119 | 132.26055 | 28964 ft | 435 kts | 170° |
| 2026-04-22 09:58 | -12.90098 | 132.26646 | 29261 ft | 437 kts | 170° |
| 2026-04-22 09:58 | -12.93094 | 132.27246 | 29564 ft | 440 kts | 170° |
| 2026-04-22 09:58 | -12.96101 | 132.27854 | 29879 ft | 442 kts | 170° |
| 2026-04-22 09:59 | -12.99124 | 132.28465 | 30154 ft | 444 kts | 170° |
| 2026-04-22 09:59 | -13.02165 | 132.29077 | 30423 ft | 446 kts | 170° |
| 2026-04-22 09:59 | -13.05179 | 132.29684 | 30685 ft | 448 kts | 171° |
| 2026-04-22 09:59 | -13.08253 | 132.30300 | 30920 ft | 452 kts | 171° |
| 2026-04-22 10:00 | -13.11345 | 132.30920 | 31187 ft | 454 kts | 171° |
| 2026-04-22 10:00 | -13.14449 | 132.31543 | 31467 ft | 455 kts | 171° |
| 2026-04-22 10:00 | -13.17561 | 132.32170 | 31751 ft | 457 kts | 171° |
| 2026-04-22 10:00 | -13.20679 | 132.32798 | 32123 ft | 456 kts | 171° |
| 2026-04-22 10:01 | -13.23788 | 132.33424 | 32541 ft | 454 kts | 171° |
| 2026-04-22 10:01 | -13.26882 | 132.34048 | 32955 ft | 453 kts | 172° |
| 2026-04-22 10:01 | -13.29967 | 132.34670 | 33372 ft | 451 kts | 172° |
| 2026-04-22 10:01 | -13.32999 | 132.35279 | 33836 ft | 449 kts | 172° |
| 2026-04-22 10:02 | -13.36056 | 132.35893 | 34232 ft | 447 kts | 172° |
| 2026-04-22 10:02 | -13.39102 | 132.36507 | 34565 ft | 446 kts | 172° |
| 2026-04-22 10:02 | -13.42145 | 132.37122 | 34870 ft | 445 kts | 172° |
| 2026-04-22 10:02 | -13.45186 | 132.37738 | 35166 ft | 445 kts | 172° |
| 2026-04-22 10:03 | -13.48227 | 132.38354 | 35453 ft | 445 kts | 172° |
| 2026-04-22 10:03 | -13.51267 | 132.38967 | 35738 ft | 445 kts | 172° |
| 2026-04-22 10:03 | -13.54304 | 132.39576 | 36017 ft | 445 kts | 172° |
| 2026-04-22 10:03 | -13.57307 | 132.40179 | 36291 ft | 445 kts | 172° |
| 2026-04-22 10:04 | -13.60341 | 132.40789 | 36557 ft | 445 kts | 172° |
| 2026-04-22 10:04 | -13.63378 | 132.41400 | 36853 ft | 444 kts | 172° |
| 2026-04-22 10:04 | -13.69418 | 132.42617 | 36959 ft | 439 kts | 172° |
| 2026-04-22 10:05 | -13.75393 | 132.43828 | 36961 ft | 437 kts | 172° |
| 2026-04-22 10:05 | -13.81330 | 132.45030 | 36971 ft | 437 kts | 172° |
| 2026-04-22 10:06 | -13.87305 | 132.46240 | 36967 ft | 438 kts | 172° |
| 2026-04-22 10:06 | -13.93296 | 132.47454 | 36971 ft | 439 kts | 172° |
| 2026-04-22 10:07 | -13.99291 | 132.48663 | 36976 ft | 439 kts | 172° |
| 2026-04-22 10:07 | -14.05288 | 132.49879 | 36984 ft | 440 kts | 172° |
| 2026-04-22 10:08 | -14.11250 | 132.51091 | 36988 ft | 439 kts | 172° |
| 2026-04-22 10:08 | -14.17248 | 132.52306 | 36988 ft | 439 kts | 172° |
| 2026-04-22 10:09 | -14.23247 | 132.53521 | 36991 ft | 439 kts | 172° |
| 2026-04-22 10:09 | -14.29245 | 132.54740 | 36991 ft | 439 kts | 172° |
| 2026-04-22 10:10 | -14.35198 | 132.55948 | 36995 ft | 439 kts | 172° |
| 2026-04-22 10:10 | -14.41193 | 132.57170 | 36995 ft | 439 kts | 172° |
| 2026-04-22 10:11 | -14.47185 | 132.58385 | 36993 ft | 438 kts | 172° |
| 2026-04-22 10:11 | -14.53166 | 132.59593 | 36992 ft | 438 kts | 172° |
| 2026-04-22 10:12 | -14.59109 | 132.60805 | 36994 ft | 438 kts | 172° |
| 2026-04-22 10:12 | -14.65092 | 132.62027 | 36998 ft | 438 kts | 171° |
| 2026-04-22 10:13 | -14.68023 | 132.62928 | 37000 ft | 443 kts | 160° |
| 2026-04-22 10:13 | -14.70769 | 132.64396 | 36999 ft | 447 kts | 149° |
| 2026-04-22 10:13 | -14.73217 | 132.66396 | 36997 ft | 451 kts | 138° |
| 2026-04-22 10:13 | -14.75279 | 132.68844 | 36995 ft | 454 kts | 129° |
| 2026-04-22 10:14 | -14.79094 | 132.74048 | 36990 ft | 454 kts | 129° |
| 2026-04-22 10:14 | -14.82893 | 132.79216 | 36994 ft | 455 kts | 129° |
| 2026-04-22 10:15 | -14.86712 | 132.84425 | 36993 ft | 455 kts | 129° |
| 2026-04-22 10:15 | -14.90539 | 132.89643 | 36995 ft | 455 kts | 129° |
| 2026-04-22 10:16 | -14.94368 | 132.94866 | 37001 ft | 456 kts | 129° |
| 2026-04-22 10:16 | -14.98160 | 133.00063 | 37003 ft | 456 kts | 129° |
| 2026-04-22 10:17 | -15.01988 | 133.05297 | 37012 ft | 456 kts | 130° |
| 2026-04-22 10:17 | -15.05819 | 133.10537 | 37011 ft | 457 kts | 129° |
| 2026-04-22 10:18 | -15.09622 | 133.15749 | 37008 ft | 457 kts | 129° |
| 2026-04-22 10:18 | -15.13452 | 133.20996 | 37012 ft | 457 kts | 129° |
| 2026-04-22 10:19 | -15.17279 | 133.26245 | 37013 ft | 457 kts | 130° |
| 2026-04-22 10:19 | -15.21105 | 133.31490 | 37022 ft | 456 kts | 129° |
| 2026-04-22 10:20 | -15.24901 | 133.36710 | 37016 ft | 457 kts | 129° |
| 2026-04-22 10:20 | -15.28719 | 133.41964 | 37011 ft | 457 kts | 129° |
| 2026-04-22 10:21 | -15.32542 | 133.47214 | 37009 ft | 457 kts | 130° |
| 2026-04-22 10:21 | -15.36365 | 133.52469 | 37012 ft | 457 kts | 130° |
| 2026-04-22 10:22 | -15.40161 | 133.57693 | 37018 ft | 457 kts | 130° |
| 2026-04-22 10:22 | -15.43978 | 133.62948 | 37016 ft | 456 kts | 130° |
| 2026-04-22 10:23 | -15.47794 | 133.68210 | 37019 ft | 456 kts | 130° |
| 2026-04-22 10:23 | -15.51612 | 133.73469 | 37017 ft | 456 kts | 130° |
| 2026-04-22 10:24 | -15.55397 | 133.78693 | 37018 ft | 456 kts | 130° |
| 2026-04-22 10:24 | -15.59204 | 133.83958 | 37024 ft | 456 kts | 130° |
| 2026-04-22 10:25 | -15.63012 | 133.89223 | 37019 ft | 456 kts | 130° |
| 2026-04-22 10:25 | -15.66817 | 133.94493 | 37023 ft | 456 kts | 130° |
| 2026-04-22 10:26 | -15.70591 | 133.99726 | 37020 ft | 456 kts | 130° |
| 2026-04-22 10:26 | -15.74392 | 134.04993 | 37019 ft | 456 kts | 130° |
| 2026-04-22 10:27 | -15.78189 | 134.10268 | 37021 ft | 456 kts | 130° |
| 2026-04-22 10:27 | -15.81986 | 134.15538 | 37024 ft | 456 kts | 130° |
| 2026-04-22 10:28 | -15.85763 | 134.20776 | 37024 ft | 456 kts | 130° |
| 2026-04-22 10:28 | -15.89559 | 134.26049 | 37027 ft | 456 kts | 130° |
| 2026-04-22 10:29 | -15.93353 | 134.31332 | 37022 ft | 456 kts | 130° |
| 2026-04-22 10:29 | -15.97151 | 134.36607 | 37045 ft | 456 kts | 130° |
| 2026-04-22 10:30 | -16.00933 | 134.41856 | 37035 ft | 456 kts | 130° |
| 2026-04-22 10:30 | -16.04725 | 134.47148 | 37035 ft | 457 kts | 130° |
| 2026-04-22 10:31 | -16.08516 | 134.52449 | 37037 ft | 457 kts | 130° |
| 2026-04-22 10:31 | -16.12309 | 134.57750 | 37040 ft | 457 kts | 130° |
| 2026-04-22 10:32 | -16.16077 | 134.63008 | 37041 ft | 457 kts | 130° |
| 2026-04-22 10:32 | -16.19872 | 134.68313 | 37042 ft | 457 kts | 130° |
| 2026-04-22 10:33 | -16.23669 | 134.73628 | 37040 ft | 458 kts | 130° |
| 2026-04-22 10:33 | -16.27461 | 134.78948 | 37040 ft | 458 kts | 130° |
| 2026-04-22 10:34 | -16.31230 | 134.84233 | 37036 ft | 458 kts | 130° |
| 2026-04-22 10:34 | -16.35021 | 134.89555 | 37044 ft | 458 kts | 130° |
| 2026-04-22 10:35 | -16.38809 | 134.94879 | 37043 ft | 458 kts | 130° |
| 2026-04-22 10:35 | -16.42599 | 135.00202 | 37044 ft | 458 kts | 130° |
| 2026-04-22 10:36 | -16.46364 | 135.05496 | 37040 ft | 458 kts | 130° |
| 2026-04-22 10:36 | -16.50150 | 135.10828 | 37044 ft | 458 kts | 130° |
| 2026-04-22 10:37 | -16.55822 | 135.18827 | 37041 ft | 457 kts | 130° |
| 2026-04-22 10:38 | -16.59608 | 135.24158 | 37042 ft | 457 kts | 130° |
| 2026-04-22 10:38 | -16.63363 | 135.29453 | 37039 ft | 457 kts | 130° |
| 2026-04-22 10:39 | -16.67139 | 135.34790 | 37035 ft | 457 kts | 130° |
| 2026-04-22 10:39 | -16.70920 | 135.40127 | 37035 ft | 457 kts | 130° |
| 2026-04-22 10:40 | -16.74697 | 135.45471 | 37031 ft | 458 kts | 130° |
| 2026-04-22 10:40 | -16.78446 | 135.50786 | 37030 ft | 458 kts | 130° |
| 2026-04-22 10:41 | -16.82226 | 135.56138 | 37034 ft | 458 kts | 130° |
| 2026-04-22 10:41 | -16.86006 | 135.61492 | 37038 ft | 458 kts | 130° |
| 2026-04-22 10:42 | -16.89785 | 135.66844 | 37037 ft | 458 kts | 130° |
| 2026-04-22 10:42 | -16.93528 | 135.72174 | 37031 ft | 458 kts | 130° |
| 2026-04-22 10:43 | -16.97300 | 135.77538 | 37040 ft | 458 kts | 130° |
| 2026-04-22 10:43 | -17.01074 | 135.82894 | 37033 ft | 458 kts | 130° |
| 2026-04-22 10:44 | -17.04830 | 135.88219 | 37035 ft | 458 kts | 130° |
| 2026-04-22 10:44 | -17.08610 | 135.93588 | 37032 ft | 459 kts | 130° |
| 2026-04-22 10:45 | -17.12377 | 135.98970 | 37037 ft | 459 kts | 130° |
| 2026-04-22 10:45 | -17.16148 | 136.04358 | 37039 ft | 459 kts | 130° |
| 2026-04-22 10:46 | -17.19919 | 136.09756 | 37040 ft | 460 kts | 130° |
| 2026-04-22 10:46 | -17.23664 | 136.15120 | 37041 ft | 460 kts | 130° |
| 2026-04-22 10:47 | -17.27440 | 136.20521 | 37049 ft | 460 kts | 130° |
| 2026-04-22 10:47 | -17.31226 | 136.25916 | 37048 ft | 460 kts | 130° |
| 2026-04-22 10:48 | -17.35003 | 136.31320 | 37051 ft | 460 kts | 130° |
| 2026-04-22 10:48 | -17.38752 | 136.36704 | 37050 ft | 461 kts | 130° |
| 2026-04-22 10:49 | -17.42530 | 136.42121 | 37054 ft | 460 kts | 130° |
| 2026-04-22 10:49 | -17.46305 | 136.47539 | 37056 ft | 461 kts | 130° |
| 2026-04-22 10:50 | -17.50079 | 136.52967 | 37059 ft | 461 kts | 130° |
| 2026-04-22 10:50 | -17.53856 | 136.58392 | 37068 ft | 461 kts | 130° |
| 2026-04-22 10:51 | -17.57608 | 136.63789 | 37065 ft | 461 kts | 130° |
| 2026-04-22 10:51 | -17.61377 | 136.69232 | 37062 ft | 461 kts | 130° |
| 2026-04-22 10:52 | -17.65155 | 136.74673 | 37059 ft | 462 kts | 130° |
| 2026-04-22 10:52 | -17.68931 | 136.80120 | 37066 ft | 462 kts | 130° |
| 2026-04-22 10:53 | -17.72683 | 136.85535 | 37070 ft | 462 kts | 130° |
| 2026-04-22 10:53 | -17.76457 | 136.90986 | 37069 ft | 462 kts | 130° |
| 2026-04-22 10:54 | -17.80228 | 136.96445 | 37072 ft | 462 kts | 130° |
| 2026-04-22 10:54 | -17.84005 | 137.01898 | 37071 ft | 462 kts | 130° |
| 2026-04-22 10:55 | -17.87777 | 137.07353 | 37078 ft | 462 kts | 130° |
| 2026-04-22 10:55 | -17.91520 | 137.12776 | 37075 ft | 462 kts | 130° |
| 2026-04-22 10:56 | -17.95279 | 137.18247 | 37081 ft | 462 kts | 130° |
| 2026-04-22 10:56 | -17.99038 | 137.23720 | 37076 ft | 462 kts | 130° |
| 2026-04-22 10:57 | -18.02805 | 137.29190 | 37083 ft | 462 kts | 130° |
| 2026-04-22 10:57 | -18.06549 | 137.34622 | 37079 ft | 462 kts | 130° |
| 2026-04-22 10:58 | -18.10308 | 137.40098 | 37082 ft | 462 kts | 130° |
| 2026-04-22 10:58 | -18.14066 | 137.45581 | 37076 ft | 462 kts | 130° |
| 2026-04-22 10:59 | -18.17827 | 137.51064 | 37071 ft | 462 kts | 130° |
| 2026-04-22 10:59 | -18.21564 | 137.56511 | 37072 ft | 462 kts | 130° |
| 2026-04-22 11:00 | -18.25319 | 137.62004 | 37077 ft | 463 kts | 130° |
| 2026-04-22 11:00 | -18.29081 | 137.67494 | 37092 ft | 463 kts | 131° |
| 2026-04-22 11:01 | -18.32850 | 137.72998 | 37091 ft | 463 kts | 131° |
| 2026-04-22 11:01 | -18.36585 | 137.78474 | 37084 ft | 464 kts | 131° |
| 2026-04-22 11:02 | -18.40344 | 137.83981 | 37078 ft | 464 kts | 131° |
| 2026-04-22 11:02 | -18.44107 | 137.89494 | 37069 ft | 463 kts | 131° |
| 2026-04-22 11:03 | -18.47861 | 137.95016 | 37068 ft | 464 kts | 131° |
| 2026-04-22 11:03 | -18.51619 | 138.00546 | 37069 ft | 464 kts | 131° |
| 2026-04-22 11:04 | -18.55348 | 138.06032 | 37079 ft | 464 kts | 131° |
| 2026-04-22 11:04 | -18.59107 | 138.11563 | 37078 ft | 464 kts | 131° |
| 2026-04-22 11:05 | -18.62866 | 138.17100 | 37075 ft | 464 kts | 131° |
| 2026-04-22 11:05 | -18.66598 | 138.22607 | 37089 ft | 465 kts | 131° |
| 2026-04-22 11:06 | -18.70363 | 138.28153 | 37095 ft | 465 kts | 131° |
| 2026-04-22 11:06 | -18.74128 | 138.33716 | 37083 ft | 466 kts | 131° |
| 2026-04-22 11:07 | -18.77897 | 138.39287 | 37080 ft | 467 kts | 131° |
| 2026-04-22 11:07 | -18.81665 | 138.44867 | 37089 ft | 467 kts | 131° |
| 2026-04-22 11:08 | -18.85406 | 138.50410 | 37086 ft | 467 kts | 131° |
| 2026-04-22 11:08 | -18.89179 | 138.55998 | 37087 ft | 467 kts | 131° |
| 2026-04-22 11:09 | -18.92946 | 138.61592 | 37082 ft | 467 kts | 131° |
| 2026-04-22 11:09 | -18.96684 | 138.67153 | 37089 ft | 467 kts | 131° |
| 2026-04-22 11:10 | -19.00449 | 138.72748 | 37083 ft | 467 kts | 131° |
| 2026-04-22 11:10 | -19.04216 | 138.78343 | 37084 ft | 467 kts | 131° |
| 2026-04-22 11:11 | -19.07970 | 138.83948 | 37085 ft | 467 kts | 131° |
| 2026-04-22 11:11 | -19.11727 | 138.89556 | 37091 ft | 467 kts | 131° |
| 2026-04-22 11:12 | -19.15467 | 138.95125 | 37092 ft | 467 kts | 131° |
| 2026-04-22 11:12 | -19.19229 | 139.00737 | 37093 ft | 468 kts | 131° |
| 2026-04-22 11:13 | -19.22987 | 139.06354 | 37095 ft | 468 kts | 131° |
| 2026-04-22 11:13 | -19.26740 | 139.11968 | 37100 ft | 468 kts | 131° |
| 2026-04-22 11:14 | -19.30474 | 139.17556 | 37101 ft | 468 kts | 131° |
| 2026-04-22 11:14 | -19.34231 | 139.23189 | 37101 ft | 468 kts | 131° |
| 2026-04-22 11:15 | -19.37988 | 139.28824 | 37099 ft | 468 kts | 131° |
| 2026-04-22 11:15 | -19.41745 | 139.34459 | 37099 ft | 468 kts | 131° |
| 2026-04-22 11:16 | -19.45470 | 139.40060 | 37098 ft | 468 kts | 131° |
| 2026-04-22 11:16 | -19.49216 | 139.45698 | 37091 ft | 468 kts | 131° |
| 2026-04-22 11:17 | -19.52964 | 139.51332 | 37090 ft | 468 kts | 131° |
| 2026-04-22 11:17 | -19.54837 | 139.54151 | 36775 ft | 470 kts | 131° |
| 2026-04-22 11:17 | -19.56796 | 139.57080 | 34846 ft | 505 kts | 131° |
| 2026-04-22 11:17 | -19.58884 | 139.60193 | 33359 ft | 526 kts | 130° |
| 2026-04-22 11:18 | -19.60957 | 139.63316 | 32885 ft | 519 kts | 130° |
| 2026-04-22 11:18 | -19.62982 | 139.66408 | 32869 ft | 502 kts | 130° |
| 2026-04-22 11:18 | -19.64935 | 139.69403 | 32861 ft | 486 kts | 130° |
| 2026-04-22 11:19 | -19.68757 | 139.75215 | 33414 ft | 478 kts | 131° |
| 2026-04-22 11:19 | -19.70670 | 139.78097 | 33927 ft | 477 kts | 131° |
| 2026-04-22 11:19 | -19.72580 | 139.80975 | 34337 ft | 477 kts | 131° |
| 2026-04-22 11:19 | -19.74487 | 139.83852 | 34703 ft | 476 kts | 131° |
| 2026-04-22 11:20 | -19.76365 | 139.86692 | 35059 ft | 476 kts | 131° |
| 2026-04-22 11:20 | -19.78264 | 139.89571 | 35397 ft | 476 kts | 131° |
| 2026-04-22 11:20 | -19.80160 | 139.92449 | 35735 ft | 475 kts | 131° |
| 2026-04-22 11:20 | -19.82053 | 139.95322 | 36067 ft | 475 kts | 131° |
| 2026-04-22 11:21 | -19.83946 | 139.98196 | 36408 ft | 475 kts | 131° |
| 2026-04-22 11:21 | -19.85839 | 140.01072 | 36717 ft | 475 kts | 131° |
| 2026-04-22 11:21 | -19.87731 | 140.03947 | 37038 ft | 475 kts | 131° |
| 2026-04-22 11:21 | -19.89627 | 140.06827 | 37354 ft | 474 kts | 131° |
| 2026-04-22 11:22 | -19.91511 | 140.09693 | 37664 ft | 474 kts | 131° |
| 2026-04-22 11:22 | -19.93372 | 140.12527 | 37966 ft | 474 kts | 131° |
| 2026-04-22 11:22 | -19.95261 | 140.15401 | 38078 ft | 474 kts | 131° |
| 2026-04-22 11:23 | -19.99035 | 140.21138 | 38108 ft | 474 kts | 132° |
| 2026-04-22 11:23 | -20.02807 | 140.26895 | 38085 ft | 475 kts | 132° |
| 2026-04-22 11:24 | -20.06577 | 140.32660 | 38082 ft | 475 kts | 132° |
| 2026-04-22 11:24 | -20.10322 | 140.38391 | 38087 ft | 475 kts | 132° |
| 2026-04-22 11:25 | -20.14100 | 140.44154 | 38100 ft | 475 kts | 132° |
| 2026-04-22 11:25 | -20.17884 | 140.49918 | 38095 ft | 475 kts | 132° |
| 2026-04-22 11:26 | -20.21657 | 140.55698 | 38092 ft | 475 kts | 132° |
| 2026-04-22 11:26 | -20.25398 | 140.61451 | 38096 ft | 476 kts | 132° |
| 2026-04-22 11:27 | -20.29162 | 140.67250 | 38105 ft | 476 kts | 132° |
| 2026-04-22 11:27 | -20.32931 | 140.73047 | 38100 ft | 476 kts | 132° |
| 2026-04-22 11:28 | -20.36707 | 140.78837 | 38106 ft | 476 kts | 132° |
| 2026-04-22 11:28 | -20.40476 | 140.84643 | 38105 ft | 476 kts | 132° |
| 2026-04-22 11:29 | -20.44211 | 140.90412 | 38129 ft | 477 kts | 132° |
| 2026-04-22 11:29 | -20.47978 | 140.96235 | 38121 ft | 477 kts | 132° |
| 2026-04-22 11:30 | -20.51751 | 141.02060 | 38108 ft | 477 kts | 132° |
| 2026-04-22 11:30 | -20.55522 | 141.07892 | 38117 ft | 478 kts | 132° |
| 2026-04-22 11:31 | -20.59267 | 141.13693 | 38126 ft | 478 kts | 132° |
| 2026-04-22 11:31 | -20.63036 | 141.19535 | 38106 ft | 478 kts | 132° |
| 2026-04-22 11:32 | -20.66814 | 141.25384 | 38123 ft | 478 kts | 132° |
| 2026-04-22 11:32 | -20.70587 | 141.31239 | 38110 ft | 478 kts | 132° |
| 2026-04-22 11:33 | -20.74330 | 141.37060 | 38111 ft | 479 kts | 132° |
| 2026-04-22 11:33 | -20.78091 | 141.42924 | 38116 ft | 479 kts | 132° |
| 2026-04-22 11:34 | -20.81866 | 141.48794 | 38119 ft | 479 kts | 132° |
| 2026-04-22 11:34 | -20.85648 | 141.54674 | 38120 ft | 480 kts | 132° |
| 2026-04-22 11:35 | -20.89422 | 141.60560 | 38139 ft | 480 kts | 132° |
| 2026-04-22 11:35 | -20.93195 | 141.66464 | 38133 ft | 481 kts | 132° |
| 2026-04-22 11:36 | -20.96946 | 141.72329 | 38131 ft | 481 kts | 132° |
| 2026-04-22 11:36 | -21.00717 | 141.78240 | 38129 ft | 481 kts | 132° |
| 2026-04-22 11:37 | -21.04486 | 141.84141 | 38132 ft | 481 kts | 132° |
| 2026-04-22 11:37 | -21.08255 | 141.90055 | 38125 ft | 481 kts | 132° |
| 2026-04-22 11:38 | -21.11998 | 141.95932 | 38123 ft | 481 kts | 132° |
| 2026-04-22 11:38 | -21.17649 | 142.04816 | 38155 ft | 481 kts | 131° |
| 2026-04-22 11:39 | -21.21409 | 142.10747 | 38141 ft | 481 kts | 132° |
| 2026-04-22 11:39 | -21.25177 | 142.16678 | 38130 ft | 481 kts | 132° |
| 2026-04-22 11:40 | -21.28913 | 142.22578 | 38129 ft | 482 kts | 131° |
| 2026-04-22 11:40 | -21.32670 | 142.28529 | 38171 ft | 482 kts | 131° |
| 2026-04-22 11:41 | -21.36437 | 142.34487 | 38150 ft | 483 kts | 132° |
| 2026-04-22 11:41 | -21.40210 | 142.40451 | 38141 ft | 483 kts | 131° |
| 2026-04-22 11:42 | -21.43953 | 142.46389 | 38142 ft | 484 kts | 131° |
| 2026-04-22 11:42 | -21.47725 | 142.52370 | 38142 ft | 484 kts | 131° |
| 2026-04-22 11:43 | -21.51496 | 142.58350 | 38143 ft | 484 kts | 131° |
| 2026-04-22 11:43 | -21.55269 | 142.64342 | 38143 ft | 484 kts | 131° |
| 2026-04-22 11:44 | -21.59015 | 142.70314 | 38151 ft | 485 kts | 131° |
| 2026-04-22 11:44 | -21.62781 | 142.76319 | 38151 ft | 485 kts | 131° |
| 2026-04-22 11:45 | -21.66549 | 142.82329 | 38155 ft | 485 kts | 131° |
| 2026-04-22 11:45 | -21.70316 | 142.88345 | 38154 ft | 485 kts | 131° |
| 2026-04-22 11:46 | -21.74086 | 142.94368 | 38153 ft | 485 kts | 131° |
| 2026-04-22 11:46 | -21.77829 | 143.00356 | 38157 ft | 485 kts | 131° |
| 2026-04-22 11:47 | -21.81586 | 143.06388 | 38163 ft | 485 kts | 131° |
| 2026-04-22 11:47 | -21.85349 | 143.12420 | 38157 ft | 485 kts | 131° |
| 2026-04-22 11:48 | -21.89112 | 143.18453 | 38155 ft | 486 kts | 131° |
| 2026-04-22 11:48 | -21.92845 | 143.24461 | 38155 ft | 486 kts | 131° |
| 2026-04-22 11:49 | -21.96602 | 143.30514 | 38164 ft | 486 kts | 131° |
| 2026-04-22 11:49 | -22.00364 | 143.36571 | 38147 ft | 486 kts | 131° |
| 2026-04-22 11:50 | -22.04121 | 143.42629 | 38163 ft | 486 kts | 131° |
| 2026-04-22 11:50 | -22.07845 | 143.48646 | 38155 ft | 486 kts | 131° |
| 2026-04-22 11:51 | -22.11606 | 143.54705 | 38159 ft | 486 kts | 131° |
| 2026-04-22 11:51 | -22.15360 | 143.60781 | 38160 ft | 487 kts | 131° |
| 2026-04-22 11:52 | -22.19110 | 143.66860 | 38172 ft | 487 kts | 131° |
| 2026-04-22 11:52 | -22.22848 | 143.72936 | 38187 ft | 487 kts | 131° |
| 2026-04-22 11:53 | -22.26565 | 143.78982 | 38185 ft | 486 kts | 131° |
| 2026-04-22 11:53 | -22.30305 | 143.85063 | 38176 ft | 485 kts | 131° |
| 2026-04-22 11:54 | -22.34039 | 143.91127 | 38172 ft | 485 kts | 131° |
| 2026-04-22 11:54 | -22.37773 | 143.97218 | 38172 ft | 486 kts | 131° |
| 2026-04-22 11:55 | -22.41473 | 144.03266 | 38171 ft | 486 kts | 131° |
| 2026-04-22 11:55 | -22.45201 | 144.09355 | 38174 ft | 486 kts | 131° |
| 2026-04-22 11:56 | -22.48940 | 144.15446 | 38168 ft | 486 kts | 131° |
| 2026-04-22 11:56 | -22.52674 | 144.21539 | 38167 ft | 486 kts | 131° |
| 2026-04-22 11:57 | -22.56393 | 144.27642 | 38181 ft | 486 kts | 131° |
| 2026-04-22 11:57 | -22.60083 | 144.33715 | 38175 ft | 486 kts | 131° |
| 2026-04-22 11:58 | -22.63794 | 144.39826 | 38173 ft | 486 kts | 131° |
| 2026-04-22 11:58 | -22.67508 | 144.45930 | 38192 ft | 486 kts | 130° |
| 2026-04-22 11:59 | -22.71213 | 144.52033 | 38180 ft | 484 kts | 130° |
| 2026-04-22 11:59 | -22.74884 | 144.58075 | 38164 ft | 484 kts | 130° |
| 2026-04-22 12:00 | -22.78574 | 144.64176 | 38173 ft | 484 kts | 130° |
| 2026-04-22 12:00 | -22.82261 | 144.70284 | 38178 ft | 484 kts | 130° |
| 2026-04-22 12:01 | -22.85933 | 144.76348 | 38172 ft | 484 kts | 130° |
| 2026-04-22 12:01 | -22.89630 | 144.82456 | 38170 ft | 484 kts | 130° |
| 2026-04-22 12:02 | -22.93317 | 144.88567 | 38176 ft | 485 kts | 130° |
| 2026-04-22 12:02 | -22.97003 | 144.94705 | 38175 ft | 485 kts | 130° |
| 2026-04-22 12:03 | -23.00686 | 145.00828 | 38193 ft | 485 kts | 130° |
| 2026-04-22 12:03 | -23.04349 | 145.06918 | 38188 ft | 485 kts | 130° |
| 2026-04-22 12:04 | -23.08033 | 145.13052 | 38184 ft | 485 kts | 130° |
| 2026-04-22 12:04 | -23.11707 | 145.19193 | 38179 ft | 485 kts | 130° |
| 2026-04-22 12:05 | -23.15373 | 145.25321 | 38179 ft | 482 kts | 130° |
| 2026-04-22 12:05 | -23.19001 | 145.31382 | 38181 ft | 481 kts | 130° |
| 2026-04-22 12:06 | -23.22649 | 145.37480 | 38184 ft | 482 kts | 130° |
| 2026-04-22 12:06 | -23.26300 | 145.43591 | 38182 ft | 482 kts | 130° |
| 2026-04-22 12:07 | -23.29948 | 145.49710 | 38183 ft | 482 kts | 130° |
| 2026-04-22 12:07 | -23.33569 | 145.55795 | 38194 ft | 482 kts | 130° |
| 2026-04-22 12:08 | -23.37208 | 145.61930 | 38189 ft | 482 kts | 130° |
| 2026-04-22 12:08 | -23.40847 | 145.68064 | 38189 ft | 482 kts | 130° |
| 2026-04-22 12:09 | -23.44491 | 145.74195 | 38192 ft | 482 kts | 130° |
| 2026-04-22 12:09 | -23.48103 | 145.80295 | 38201 ft | 482 kts | 129° |
| 2026-04-22 12:10 | -23.51729 | 145.86435 | 38198 ft | 482 kts | 129° |
| 2026-04-22 12:10 | -23.55360 | 145.92582 | 38196 ft | 482 kts | 129° |
| 2026-04-22 12:11 | -23.58992 | 145.98729 | 38195 ft | 482 kts | 129° |
| 2026-04-22 12:11 | -23.62595 | 146.04840 | 38209 ft | 482 kts | 129° |
| 2026-04-22 12:12 | -23.66220 | 146.11003 | 38204 ft | 482 kts | 129° |
| 2026-04-22 12:12 | -23.69840 | 146.17156 | 38200 ft | 482 kts | 129° |
| 2026-04-22 12:13 | -23.73459 | 146.23333 | 38201 ft | 483 kts | 129° |
| 2026-04-22 12:13 | -23.77047 | 146.29462 | 38200 ft | 483 kts | 129° |
| 2026-04-22 12:14 | -23.80658 | 146.35641 | 38209 ft | 483 kts | 129° |
| 2026-04-22 12:14 | -23.84275 | 146.41817 | 38205 ft | 483 kts | 129° |
| 2026-04-22 12:15 | -23.87884 | 146.47999 | 38203 ft | 483 kts | 129° |
| 2026-04-22 12:15 | -23.91490 | 146.54186 | 38203 ft | 483 kts | 129° |
| 2026-04-22 12:16 | -23.95069 | 146.60332 | 38206 ft | 483 kts | 129° |
| 2026-04-22 12:16 | -23.98671 | 146.66532 | 38204 ft | 483 kts | 129° |
| 2026-04-22 12:17 | -24.02262 | 146.72739 | 38207 ft | 483 kts | 129° |
| 2026-04-22 12:17 | -24.05860 | 146.78937 | 38212 ft | 482 kts | 129° |
| 2026-04-22 12:18 | -24.09422 | 146.85070 | 38219 ft | 481 kts | 129° |
| 2026-04-22 12:18 | -24.13006 | 146.91266 | 38212 ft | 482 kts | 129° |
| 2026-04-22 12:19 | -24.16592 | 146.97467 | 38217 ft | 482 kts | 129° |
| 2026-04-22 12:19 | -24.20173 | 147.03679 | 38202 ft | 482 kts | 129° |
| 2026-04-22 12:20 | -24.23733 | 147.09857 | 38201 ft | 482 kts | 129° |
| 2026-04-22 12:20 | -24.27320 | 147.16072 | 38215 ft | 483 kts | 129° |
| 2026-04-22 12:21 | -24.30895 | 147.22297 | 38205 ft | 483 kts | 129° |
| 2026-04-22 12:21 | -24.34449 | 147.28487 | 38205 ft | 483 kts | 129° |
| 2026-04-22 12:22 | -24.38025 | 147.34712 | 38205 ft | 483 kts | 129° |
| 2026-04-22 12:22 | -24.41599 | 147.40963 | 38214 ft | 483 kts | 128° |
| 2026-04-22 12:23 | -24.45167 | 147.47210 | 38212 ft | 483 kts | 128° |
| 2026-04-22 12:23 | -24.48736 | 147.53456 | 38215 ft | 483 kts | 128° |
| 2026-04-22 12:24 | -24.52275 | 147.59655 | 38216 ft | 483 kts | 128° |
| 2026-04-22 12:24 | -24.55841 | 147.65912 | 38229 ft | 483 kts | 128° |
| 2026-04-22 12:25 | -24.59409 | 147.72181 | 38227 ft | 484 kts | 128° |
| 2026-04-22 12:25 | -24.62983 | 147.78459 | 38219 ft | 485 kts | 128° |
| 2026-04-22 12:26 | -24.66554 | 147.84749 | 38220 ft | 485 kts | 128° |
| 2026-04-22 12:26 | -24.70097 | 147.91013 | 38229 ft | 486 kts | 128° |
| 2026-04-22 12:27 | -24.73662 | 147.97324 | 38236 ft | 486 kts | 128° |
| 2026-04-22 12:27 | -24.77232 | 148.03622 | 38230 ft | 486 kts | 128° |
| 2026-04-22 12:28 | -24.80806 | 148.09927 | 38240 ft | 486 kts | 128° |
| 2026-04-22 12:28 | -24.84336 | 148.16209 | 38231 ft | 486 kts | 128° |
| 2026-04-22 12:29 | -24.87882 | 148.22539 | 38241 ft | 486 kts | 128° |
| 2026-04-22 12:29 | -24.91444 | 148.28861 | 38234 ft | 486 kts | 128° |
| 2026-04-22 12:30 | -24.96755 | 148.38310 | 38256 ft | 486 kts | 128° |
| 2026-04-22 12:31 | -25.00298 | 148.44643 | 38214 ft | 485 kts | 128° |
| 2026-04-22 12:31 | -25.03850 | 148.50968 | 38218 ft | 485 kts | 128° |
| 2026-04-22 12:32 | -25.07402 | 148.57306 | 38217 ft | 486 kts | 128° |
| 2026-04-22 12:32 | -25.12695 | 148.66791 | 38221 ft | 487 kts | 128° |
| 2026-04-22 12:33 | -25.16233 | 148.73165 | 38229 ft | 487 kts | 128° |
| 2026-04-22 12:33 | -25.19779 | 148.79537 | 38245 ft | 487 kts | 128° |
| 2026-04-22 12:34 | -25.22729 | 148.84836 | 38239 ft | 487 kts | 128° |
| 2026-04-22 12:34 | -25.26867 | 148.92291 | 38239 ft | 487 kts | 128° |
| 2026-04-22 12:35 | -25.30372 | 148.98624 | 38229 ft | 487 kts | 128° |
| 2026-04-22 12:35 | -25.33308 | 149.03929 | 38236 ft | 486 kts | 128° |
| 2026-04-22 12:36 | -25.36841 | 149.10308 | 38231 ft | 487 kts | 128° |
| 2026-04-22 12:36 | -25.40365 | 149.16699 | 38230 ft | 487 kts | 128° |
| 2026-04-22 12:37 | -25.44453 | 149.24124 | 38210 ft | 484 kts | 128° |
| 2026-04-22 12:37 | -25.47385 | 149.29453 | 38200 ft | 484 kts | 128° |
| 2026-04-22 12:38 | -25.50882 | 149.35808 | 38209 ft | 484 kts | 128° |
| 2026-04-22 12:38 | -25.54365 | 149.42138 | 38210 ft | 485 kts | 128° |
| 2026-04-22 12:39 | -25.59612 | 149.51724 | 38218 ft | 485 kts | 128° |
| 2026-04-22 12:40 | -25.63114 | 149.58121 | 38221 ft | 486 kts | 128° |
| 2026-04-22 12:40 | -25.66587 | 149.64486 | 38224 ft | 486 kts | 128° |
| 2026-04-22 12:41 | -25.70087 | 149.70896 | 38226 ft | 486 kts | 127° |
| 2026-04-22 12:41 | -25.73581 | 149.77314 | 38226 ft | 486 kts | 127° |
| 2026-04-22 12:42 | -25.77068 | 149.83731 | 38228 ft | 486 kts | 127° |
| 2026-04-22 12:42 | -25.80443 | 149.90257 | 38249 ft | 492 kts | 119° |
| 2026-04-22 12:43 | -25.82906 | 149.97318 | 38235 ft | 495 kts | 115° |
| 2026-04-22 12:43 | -25.85348 | 150.04461 | 38232 ft | 495 kts | 116° |
| 2026-04-22 12:44 | -25.87782 | 150.11611 | 38232 ft | 495 kts | 115° |
| 2026-04-22 12:44 | -25.90213 | 150.18766 | 38254 ft | 495 kts | 115° |
| 2026-04-22 12:45 | -25.92626 | 150.25880 | 38245 ft | 495 kts | 115° |
| 2026-04-22 12:45 | -25.95060 | 150.33042 | 38212 ft | 495 kts | 116° |
| 2026-04-22 12:46 | -25.97479 | 150.40168 | 38208 ft | 493 kts | 116° |
| 2026-04-22 12:46 | -25.99885 | 150.47322 | 38232 ft | 494 kts | 115° |
| 2026-04-22 12:47 | -26.02286 | 150.54470 | 38240 ft | 494 kts | 115° |
| 2026-04-22 12:47 | -26.04682 | 150.61586 | 38243 ft | 495 kts | 115° |
| 2026-04-22 12:48 | -26.07092 | 150.68754 | 38245 ft | 495 kts | 115° |
| 2026-04-22 12:48 | -26.09498 | 150.75929 | 38263 ft | 495 kts | 115° |
| 2026-04-22 12:49 | -26.11904 | 150.83108 | 38259 ft | 495 kts | 115° |
| 2026-04-22 12:49 | -26.14291 | 150.90243 | 38263 ft | 495 kts | 115° |
| 2026-04-22 12:50 | -26.16684 | 150.97438 | 38258 ft | 496 kts | 115° |
| 2026-04-22 12:50 | -26.19073 | 151.04631 | 38142 ft | 496 kts | 115° |
| 2026-04-22 12:50 | -26.20268 | 151.08223 | 37876 ft | 494 kts | 115° |
| 2026-04-22 12:51 | -26.21456 | 151.11807 | 37601 ft | 493 kts | 115° |
| 2026-04-22 12:51 | -26.22644 | 151.15387 | 37339 ft | 493 kts | 115° |
| 2026-04-22 12:51 | -26.23815 | 151.18920 | 37106 ft | 493 kts | 115° |
| 2026-04-22 12:51 | -26.25003 | 151.22501 | 36837 ft | 493 kts | 115° |
| 2026-04-22 12:52 | -26.26189 | 151.26084 | 36583 ft | 493 kts | 115° |
| 2026-04-22 12:52 | -26.27371 | 151.29660 | 36252 ft | 491 kts | 115° |
| 2026-04-22 12:52 | -26.28546 | 151.33228 | 35733 ft | 490 kts | 115° |
| 2026-04-22 12:52 | -26.29718 | 151.36795 | 35227 ft | 490 kts | 115° |
| 2026-04-22 12:53 | -26.30892 | 151.40362 | 34691 ft | 490 kts | 115° |
| 2026-04-22 12:53 | -26.32066 | 151.43932 | 34143 ft | 491 kts | 115° |
| 2026-04-22 12:53 | -26.33223 | 151.47454 | 33555 ft | 490 kts | 115° |
| 2026-04-22 12:53 | -26.34389 | 151.51006 | 33016 ft | 485 kts | 114° |
| 2026-04-22 12:54 | -26.35531 | 151.54495 | 32478 ft | 475 kts | 114° |
| 2026-04-22 12:54 | -26.36652 | 151.57923 | 31970 ft | 466 kts | 114° |
| 2026-04-22 12:54 | -26.37751 | 151.61284 | 31477 ft | 457 kts | 114° |
| 2026-04-22 12:54 | -26.38828 | 151.64583 | 31001 ft | 449 kts | 114° |
| 2026-04-22 12:55 | -26.39884 | 151.67824 | 30522 ft | 441 kts | 114° |
| 2026-04-22 12:55 | -26.40921 | 151.71007 | 30025 ft | 433 kts | 114° |
| 2026-04-22 12:55 | -26.41939 | 151.74126 | 29586 ft | 423 kts | 114° |
| 2026-04-22 12:55 | -26.42923 | 151.77139 | 29170 ft | 415 kts | 114° |
| 2026-04-22 12:56 | -26.43899 | 151.80128 | 28759 ft | 406 kts | 114° |
| 2026-04-22 12:56 | -26.44854 | 151.83055 | 28373 ft | 397 kts | 114° |
| 2026-04-22 12:56 | -26.45794 | 151.85934 | 27969 ft | 394 kts | 114° |
| 2026-04-22 12:56 | -26.46729 | 151.88799 | 27564 ft | 392 kts | 114° |
| 2026-04-22 12:57 | -26.47657 | 151.91652 | 27156 ft | 390 kts | 114° |
| 2026-04-22 12:57 | -26.48583 | 151.94490 | 26786 ft | 388 kts | 114° |
| 2026-04-22 12:57 | -26.49526 | 151.97305 | 26397 ft | 386 kts | 115° |
| 2026-04-22 12:57 | -26.50479 | 152.00099 | 26010 ft | 384 kts | 115° |
| 2026-04-22 12:58 | -26.51420 | 152.02839 | 25608 ft | 383 kts | 115° |
| 2026-04-22 12:58 | -26.52372 | 152.05616 | 25207 ft | 382 kts | 115° |
| 2026-04-22 12:58 | -26.53322 | 152.08388 | 24787 ft | 382 kts | 115° |
| 2026-04-22 12:58 | -26.54264 | 152.11161 | 24367 ft | 382 kts | 115° |
| 2026-04-22 12:59 | -26.55202 | 152.13935 | 23945 ft | 382 kts | 115° |
| 2026-04-22 12:59 | -26.56137 | 152.16704 | 23465 ft | 380 kts | 114° |
| 2026-04-22 12:59 | -26.57066 | 152.19461 | 23054 ft | 378 kts | 114° |
| 2026-04-22 12:59 | -26.57988 | 152.22201 | 22626 ft | 375 kts | 114° |
| 2026-04-22 13:00 | -26.58892 | 152.24883 | 22212 ft | 373 kts | 114° |
| 2026-04-22 13:00 | -26.59802 | 152.27583 | 21808 ft | 370 kts | 114° |
| 2026-04-22 13:00 | -26.60706 | 152.30267 | 21380 ft | 368 kts | 114° |
| 2026-04-22 13:00 | -26.61605 | 152.32935 | 20959 ft | 366 kts | 114° |
| 2026-04-22 13:01 | -26.62502 | 152.35584 | 20541 ft | 363 kts | 116° |
| 2026-04-22 13:01 | -26.63679 | 152.38041 | 20129 ft | 356 kts | 128° |
| 2026-04-22 13:01 | -26.65252 | 152.40133 | 19725 ft | 349 kts | 140° |
| 2026-04-22 13:01 | -26.67025 | 152.41953 | 19334 ft | 346 kts | 141° |
| 2026-04-22 13:02 | -26.68769 | 152.43743 | 18933 ft | 344 kts | 141° |
| 2026-04-22 13:02 | -26.70526 | 152.45551 | 18521 ft | 342 kts | 140° |
| 2026-04-22 13:02 | -26.72249 | 152.47332 | 18093 ft | 333 kts | 140° |
| 2026-04-22 13:02 | -26.73924 | 152.49066 | 17715 ft | 324 kts | 140° |
| 2026-04-22 13:03 | -26.75554 | 152.50759 | 17351 ft | 317 kts | 140° |
| 2026-04-22 13:03 | -26.77168 | 152.52433 | 16966 ft | 316 kts | 140° |
| 2026-04-22 13:03 | -26.78777 | 152.54100 | 16602 ft | 315 kts | 140° |
| 2026-04-22 13:03 | -26.80383 | 152.55760 | 16228 ft | 314 kts | 140° |
| 2026-04-22 13:04 | -26.81964 | 152.57394 | 15867 ft | 313 kts | 140° |
| 2026-04-22 13:04 | -26.83560 | 152.59046 | 15490 ft | 312 kts | 140° |
| 2026-04-22 13:04 | -26.85153 | 152.60694 | 15128 ft | 312 kts | 139° |
| 2026-04-22 13:04 | -26.86746 | 152.62342 | 14746 ft | 312 kts | 139° |
| 2026-04-22 13:05 | -26.88340 | 152.63991 | 14352 ft | 312 kts | 139° |
| 2026-04-22 13:05 | -26.89935 | 152.65639 | 13955 ft | 312 kts | 139° |
| 2026-04-22 13:05 | -26.91528 | 152.67285 | 13539 ft | 309 kts | 139° |
| 2026-04-22 13:05 | -26.93085 | 152.68895 | 13160 ft | 301 kts | 139° |
| 2026-04-22 13:06 | -26.94610 | 152.70473 | 12785 ft | 295 kts | 139° |
| 2026-04-22 13:06 | -26.96094 | 152.72009 | 12423 ft | 294 kts | 139° |
| 2026-04-22 13:06 | -26.97587 | 152.73549 | 12257 ft | 290 kts | 139° |
| 2026-04-22 13:06 | -26.99060 | 152.75116 | 12265 ft | 293 kts | 133° |
| 2026-04-22 13:07 | -27.00243 | 152.76993 | 12132 ft | 298 kts | 120° |
| 2026-04-22 13:07 | -27.01090 | 152.79144 | 11610 ft | 303 kts | 114° |
| 2026-04-22 13:07 | -27.01896 | 152.81334 | 11166 ft | 304 kts | 114° |
| 2026-04-22 13:07 | -27.02707 | 152.83525 | 10738 ft | 304 kts | 115° |
| 2026-04-22 13:08 | -27.03506 | 152.85675 | 10304 ft | 293 kts | 115° |
| 2026-04-22 13:08 | -27.04286 | 152.87773 | 9641 ft | 290 kts | 115° |
| 2026-04-22 13:08 | -27.05038 | 152.89795 | 9201 ft | 280 kts | 115° |
| 2026-04-22 13:08 | -27.05784 | 152.91804 | 8795 ft | 279 kts | 115° |
| 2026-04-22 13:09 | -27.06535 | 152.93818 | 8404 ft | 280 kts | 115° |
| 2026-04-22 13:09 | -27.07267 | 152.95846 | 8001 ft | 281 kts | 111° |
| 2026-04-22 13:09 | -27.07736 | 152.97974 | 7717 ft | 279 kts | 106° |
| 2026-04-22 13:09 | -27.08165 | 153.00065 | 7455 ft | 273 kts | 106° |
| 2026-04-22 13:10 | -27.08595 | 153.02132 | 7197 ft | 271 kts | 106° |
| 2026-04-22 13:10 | -27.09016 | 153.04162 | 6936 ft | 270 kts | 106° |
| 2026-04-22 13:10 | -27.09438 | 153.06209 | 6674 ft | 269 kts | 106° |
| 2026-04-22 13:10 | -27.09859 | 153.08245 | 6402 ft | 267 kts | 107° |
| 2026-04-22 13:11 | -27.10280 | 153.10269 | 6142 ft | 266 kts | 107° |
| 2026-04-22 13:11 | -27.10625 | 153.12298 | 5885 ft | 266 kts | 98° |
| 2026-04-22 13:11 | -27.10695 | 153.14360 | 5668 ft | 261 kts | 96° |
| 2026-04-22 13:11 | -27.10750 | 153.16355 | 5464 ft | 249 kts | 96° |
| 2026-04-22 13:12 | -27.10800 | 153.18245 | 5245 ft | 234 kts | 97° |
| 2026-04-22 13:12 | -27.11019 | 153.19953 | 5123 ft | 209 kts | 111° |
| 2026-04-22 13:12 | -27.11395 | 153.21439 | 4996 ft | 193 kts | 111° |
| 2026-04-22 13:12 | -27.11815 | 153.22814 | 4882 ft | 179 kts | 123° |
| 2026-04-22 13:13 | -27.12512 | 153.23862 | 4828 ft | 156 kts | 140° |
| 2026-04-22 13:13 | -27.13335 | 153.24535 | 4713 ft | 139 kts | 154° |
| 2026-04-22 13:13 | -27.14218 | 153.24930 | 4632 ft | 137 kts | 161° |
| 2026-04-22 13:13 | -27.15123 | 153.25259 | 4506 ft | 137 kts | 166° |
| 2026-04-22 13:14 | -27.16070 | 153.25334 | 4381 ft | 138 kts | 185° |
| 2026-04-22 13:14 | -27.16968 | 153.24956 | 4322 ft | 137 kts | 196° |
| 2026-04-22 13:14 | -27.17823 | 153.24550 | 4209 ft | 131 kts | 198° |
| 2026-04-22 13:14 | -27.18635 | 153.24127 | 4071 ft | 127 kts | 198° |
| 2026-04-22 13:15 | -27.19426 | 153.23697 | 3916 ft | 126 kts | 199° |
| 2026-04-22 13:15 | -27.20210 | 153.23262 | 3763 ft | 125 kts | 199° |
| 2026-04-22 13:15 | -27.20987 | 153.22826 | 3598 ft | 125 kts | 200° |
| 2026-04-22 13:15 | -27.21761 | 153.22388 | 3437 ft | 124 kts | 199° |
| 2026-04-22 13:16 | -27.22529 | 153.21952 | 3268 ft | 123 kts | 199° |
| 2026-04-22 13:16 | -27.23294 | 153.21517 | 3107 ft | 123 kts | 199° |
| 2026-04-22 13:16 | -27.24059 | 153.21082 | 2938 ft | 123 kts | 199° |
| 2026-04-22 13:16 | -27.24813 | 153.20653 | 2778 ft | 123 kts | 199° |
| 2026-04-22 13:17 | -27.25573 | 153.20219 | 2618 ft | 123 kts | 198° |
| 2026-04-22 13:17 | -27.26335 | 153.19785 | 2458 ft | 122 kts | 199° |
| 2026-04-22 13:17 | -27.27094 | 153.19353 | 2304 ft | 124 kts | 198° |
| 2026-04-22 13:17 | -27.27882 | 153.18904 | 2129 ft | 128 kts | 198° |
| 2026-04-22 13:18 | -27.28680 | 153.18449 | 1955 ft | 128 kts | 200° |
| 2026-04-22 13:18 | -27.29478 | 153.17993 | 1778 ft | 129 kts | 201° |
| 2026-04-22 13:18 | -27.30279 | 153.17536 | 1611 ft | 129 kts | 200° |
| 2026-04-22 13:18 | -27.31074 | 153.17083 | 1431 ft | 130 kts | 200° |
| 2026-04-22 13:19 | -27.31885 | 153.16619 | 1257 ft | 129 kts | 202° |
| 2026-04-22 13:19 | -27.32672 | 153.16170 | 1088 ft | 128 kts | 202° |
| 2026-04-22 13:19 | -27.33464 | 153.15708 | 937 ft | 130 kts | 204° |
| 2026-04-22 13:19 | -27.34271 | 153.15232 | 735 ft | 129 kts | 202° |
| 2026-04-22 13:20 | -27.35080 | 153.14781 | 569 ft | 137 kts | 204° |
| 2026-04-22 13:20 | -27.35927 | 153.14321 | 414 ft | 133 kts | 207° |
| 2026-04-22 13:20 | -27.36746 | 153.13842 | 240 ft | 130 kts | 206° |
| 2026-04-22 13:20 | -27.37562 | 153.13376 | 83 ft | 132 kts | 206° |
| 2026-04-22 13:21 | -27.38344 | 153.12929 | 24 ft | 109 kts | 206° |
| 2026-04-22 13:21 | -27.38782 | 153.12677 | 21 ft | 45 kts | 208° |
| 2026-04-22 13:21 | -27.38975 | 153.12500 | 22 ft | 35 kts | 230° |
| 2026-04-22 13:21 | -27.39046 | 153.12387 | 23 ft | 11 kts | 236° |
| 2026-04-22 13:22 | -27.39093 | 153.12307 | 21 ft | 14 kts | 236° |
| 2026-04-22 13:22 | -27.39136 | 153.12197 | 21 ft | 17 kts | 279° |
| 2026-04-22 13:22 | -27.39033 | 153.12162 | 23 ft | 20 kts | 26° |
| 2026-04-22 13:22 | -27.38945 | 153.12220 | 22 ft | 12 kts | 28° |
| 2026-04-22 13:23 | -27.38911 | 153.12240 | 22 ft | 0 kts | 26° |
| 2026-04-22 13:24 | -27.38910 | 153.12240 | 22 ft | 1 kts | 19° |
| 2026-04-22 13:24 | -27.38891 | 153.12250 | 22 ft | 5 kts | 27° |
| 2026-04-22 13:24 | -27.38849 | 153.12272 | 21 ft | 8 kts | 18° |
| 2026-04-22 13:25 | -27.38793 | 153.12242 | 21 ft | 11 kts | 302° |
| 2026-04-22 13:25 | -27.38774 | 153.12183 | 21 ft | 0 kts | 284° |
| 2026-04-22 13:25 | -27.38774 | 153.12181 | 21 ft | 1 kts | 283° |
| 2026-04-22 13:25 | -27.38779 | 153.12176 | 21 ft | 1 kts | 224° |
| 2026-04-22 13:26 | -27.38788 | 153.12178 | 21 ft | 2 kts | 168° |
| 2026-04-22 13:26 | -27.38795 | 153.12199 | 21 ft | 4 kts | 94° |
| 2026-04-22 13:26 | -27.38774 | 153.12233 | 23 ft | 7 kts | 31° |
| 2026-04-22 13:26 | -27.38741 | 153.12252 | 22 ft | 2 kts | 26° |
| 2026-04-22 13:27 | -27.38716 | 153.12256 | 21 ft | 5 kts | 346° |
| 2026-04-22 13:27 | -27.38687 | 153.12225 | 21 ft | 6 kts | 321° |
| 2026-04-22 13:27 | -27.38678 | 153.12218 | 21 ft | 0 kts | 324° |